Mount Vernon, KY (40456)

10:38 PM EDT on August 23, 2016 (GMT -0400)
Denny Subdivision | | Change Station

Elev 1181 ft 37.31 °N, 84.39 °W | Updated 3 seconds ago

Clear
Clear
67.5 °F
Feels Like 67.5 °F
N
0.0
Wind Variable Wind from SE
Gusts 0.0 mph

Today
High -- | Low -- °F
--% Chance of Precip.
Yesterday
High -- | Low -- °F
Precip. -- in
Pressure 30.22 in
Visibility 10.0 miles
Clouds Clear
Dew Point 66 °F
Humidity 95%
Rainfall 0.00 in
Snow Depth Not available.
7:00 AM 8:18 PM
Waning Gibbous, 62% visible
METAR KLOZ 240153Z AUTO 00000KT 10SM CLR 22/17 A3025 RMK AO2 SLP234 T02170167
Pressure 30.22 in
Visibility 10.0 miles
Clouds Clear
Dew Point 66 °F
Humidity 95%
Rainfall 0.00 in
Snow Depth Not available.
7:00 AM 8:18 PM
Waning Gibbous, 62% visible
METAR KLOZ 240153Z AUTO 00000KT 10SM CLR 22/17 A3025 RMK AO2 SLP234 T02170167

10-Day Weather Forecast

Almanac

Astronomy

Aug. 23, 2016 Rise Set
Actual Time
Civil Twilight
Nautical Twilight
Astronomical Twilight
Moon
Length of Visible Light
Length of Day
Tomorrow will be .
, % of the Moon is Illuminated

Today's Extremes

State Highs State Lows

Community

WunderPhotos

Upload Photos

1,934,528 photos uploaded!

WunderBlog® & News

Nearby

Air Quality

  Air Quality AQ Index Pollutant
Not available.

Snow Depth

Station Depth Elevation

Earthquake Activity

City Distance Mag. Time & Date
Minimum magnitude displayed is 2.5.

Coastal Water Temperatures

Place Temperature

Stations

Nearby Weather Stations

Station Location Temp. Windchill Dew Point Humidity Wind Precip. Elev Updated Type
                   

Watches & Warnings

There are currently no watches in effect.